Time;durP1;ratioP1;P1;durP2;ratioP2;P2;SDS_P1;SDS_P2;PMS_P1;PMS_P2;Temp;Humidity;BMP_temperature;BMP_pressure;BME280_temperature;BME280_humidity;BME280_pressure;Samples;Min_cycle;Max_cycle;Signal;HPM_P1;HPM_P2
2022/09/02 00:01:42;;;;;;;5.40;2.40;;;;;;;9.35;68.13;100814.89;130488;1268;109113;-72
2022/09/02 00:04:48;;;;;;;3.90;2.40;;;;;;;9.37;68.27;100810.46;130550;1268;108735;-72
2022/09/02 00:07:54;;;;;;;4.10;2.20;;;;;;;9.41;68.31;100806.42;130493;1268;108658;-72
2022/09/02 00:11:02;;;;;;;4.80;2.10;;;;;;;9.46;68.35;100805.82;130513;1268;107653;-72
2022/09/02 00:14:10;;;;;;;5.20;2.50;;;;;;;9.48;68.49;100806.36;130530;1268;109025;-72
2022/09/02 00:17:16;;;;;;;4.10;2.30;;;;;;;9.47;68.46;100806.83;130540;1268;109154;-72
2022/09/02 00:20:21;;;;;;;2.60;2.20;;;;;;;9.44;68.55;100803.83;129286;1267;1581836;-72
2022/09/02 00:23:27;;;;;;;2.90;2.30;;;;;;;9.42;68.60;100807.90;130439;1267;108802;-72
2022/09/02 00:26:32;;;;;;;3.10;2.30;;;;;;;9.39;68.57;100807.81;130545;1268;109050;-72
2022/09/02 00:29:38;;;;;;;3.80;2.30;;;;;;;9.37;68.77;100807.45;130519;1268;108698;-72
2022/09/02 00:32:44;;;;;;;3.10;2.30;;;;;;;9.34;68.55;100808.09;130501;1268;108648;-72
2022/09/02 00:35:49;;;;;;;4.40;2.20;;;;;;;9.30;68.79;100809.61;130267;1268;108735;-73
2022/09/02 00:38:55;;;;;;;3.30;2.50;;;;;;;9.23;68.76;100809.33;130220;1266;108846;-72
2022/09/02 00:42:01;;;;;;;3.50;2.10;;;;;;;9.18;68.82;100808.86;130296;1268;108958;-72
2022/09/02 00:45:09;;;;;;;3.20;1.90;;;;;;;9.17;68.85;100805.98;130354;1266;108682;-72
2022/09/02 00:48:14;;;;;;;4.30;2.20;;;;;;;9.13;68.64;100805.21;130410;1268;108906;-72
2022/09/02 00:51:20;;;;;;;2.90;1.90;;;;;;;9.11;68.87;100802.59;130398;1268;108753;-74
2022/09/02 00:54:28;;;;;;;2.40;1.90;;;;;;;9.09;68.87;100806.47;130385;1266;108686;-73
2022/09/02 00:57:38;;;;;;;4.90;2.00;;;;;;;9.09;68.97;100810.89;130412;1266;108778;-74
2022/09/02 01:00:46;;;;;;;3.10;1.90;;;;;;;9.10;68.92;100808.34;130357;1266;108865;-74
2022/09/02 01:03:52;;;;;;;2.80;1.90;;;;;;;9.09;68.67;100807.55;130511;1266;108752;-73
2022/09/02 01:06:58;;;;;;;3.20;2.00;;;;;;;9.03;68.72;100809.60;130514;1266;108946;-74
2022/09/02 01:10:05;;;;;;;2.40;2.10;;;;;;;8.98;68.87;100811.27;130271;1268;108625;-74
2022/09/02 01:13:14;;;;;;;3.20;2.10;;;;;;;8.92;68.93;100811.27;130349;1267;109856;-73
2022/09/02 01:16:26;;;;;;;4.60;2.60;;;;;;;8.85;68.96;100810.39;130417;1268;108910;-73
2022/09/02 01:19:36;;;;;;;3.20;2.50;;;;;;;8.79;69.00;100815.69;130479;1266;107476;-74
2022/09/02 01:22:44;;;;;;;3.20;2.20;;;;;;;8.73;69.04;100812.65;130377;1266;108760;-74
2022/09/02 01:25:50;;;;;;;3.10;2.00;;;;;;;8.70;69.03;100817.20;130527;1268;108561;-74
2022/09/02 01:28:55;;;;;;;2.50;1.90;;;;;;;8.66;69.02;100817.88;130371;1267;108781;-74
2022/09/02 01:32:01;;;;;;;2.90;1.70;;;;;;;8.62;68.98;100824.23;130398;1268;108820;-73
2022/09/02 01:35:09;;;;;;;2.30;1.70;;;;;;;8.57;69.10;100820.69;130375;1268;108915;-73
2022/09/02 01:38:15;;;;;;;3.30;1.80;;;;;;;8.57;69.19;100821.80;130352;1268;106822;-73
2022/09/02 01:41:21;;;;;;;3.90;1.80;;;;;;;8.56;69.09;100820.79;130389;1268;108985;-73
2022/09/02 01:44:26;;;;;;;2.50;1.80;;;;;;;8.56;69.09;100820.03;130399;1268;106872;-74
2022/09/02 01:47:32;;;;;;;2.70;1.90;;;;;;;8.56;69.05;100823.84;130422;1268;108652;-74
2022/09/02 01:50:42;;;;;;;3.10;1.90;;;;;;;8.51;68.82;100821.05;130289;1266;108969;-74
2022/09/02 01:53:48;;;;;;;2.70;1.90;;;;;;;8.47;68.83;100823.31;130309;1268;108766;-75
2022/09/02 01:56:54;;;;;;;4.40;2.50;;;;;;;8.43;68.92;100825.75;130391;1268;108804;-74
2022/09/02 02:00:03;;;;;;;2.90;1.80;;;;;;;8.40;68.87;100820.65;130339;1268;108673;-74
2022/09/02 02:03:19;;;;;;;3.40;2.20;;;;;;;8.34;68.79;100820.98;130445;1268;108584;-77
2022/09/02 02:06:24;;;;;;;2.40;1.90;;;;;;;8.28;68.88;100816.67;130421;1267;108674;-77
2022/09/02 02:09:32;;;;;;;2.60;2.00;;;;;;;8.24;69.12;100812.17;130345;1268;108943;-76
2022/09/02 02:12:38;;;;;;;2.90;2.10;;;;;;;8.20;69.06;100818.54;130318;1268;108777;-76
2022/09/02 02:15:47;;;;;;;5.10;2.50;;;;;;;8.15;69.03;100816.63;130322;1267;108767;-78
2022/09/02 02:18:52;;;;;;;3.00;2.20;;;;;;;8.10;69.01;100812.44;130572;1267;108703;-78
2022/09/02 02:21:59;;;;;;;5.80;1.90;;;;;;;8.05;69.22;100809.62;130428;1267;108985;-77
2022/09/02 02:25:07;;;;;;;3.40;2.00;;;;;;;8.01;69.37;100805.85;130323;1268;108853;-77
2022/09/02 02:28:13;;;;;;;2.50;1.70;;;;;;;8.00;69.17;100803.80;130427;1268;107681;-77
2022/09/02 02:31:20;;;;;;;16.50;5.60;;;;;;;8.01;69.02;100803.73;130379;1267;108727;-77
2022/09/02 02:34:26;;;;;;;3.70;2.40;;;;;;;7.99;69.30;100803.59;130553;1267;107735;-76
2022/09/02 02:37:31;;;;;;;3.90;2.30;;;;;;;7.97;69.05;100797.33;130422;1267;108782;-78
2022/09/02 02:40:37;;;;;;;2.70;1.90;;;;;;;7.96;69.13;100795.69;130293;1268;108798;-78
2022/09/02 02:43:43;;;;;;;3.30;1.90;;;;;;;7.95;69.30;100798.56;130304;1268;108827;-76
2022/09/02 02:46:50;;;;;;;2.30;1.90;;;;;;;7.93;69.08;100799.93;130277;1268;108636;-76
2022/09/02 02:49:56;;;;;;;3.20;2.00;;;;;;;7.91;69.10;100803.86;130292;1267;108862;-76
2022/09/02 02:53:02;;;;;;;3.70;2.10;;;;;;;7.85;69.24;100799.56;130280;1267;108631;-76
2022/09/02 02:56:10;;;;;;;3.40;2.00;;;;;;;7.82;69.21;100801.67;130321;1268;108867;-77
2022/09/02 02:59:16;;;;;;;2.70;2.10;;;;;;;7.79;69.27;100801.08;130610;1267;109004;-79
2022/09/02 03:02:21;;;;;;;3.50;2.00;;;;;;;7.77;69.21;100802.83;130366;1267;109054;-77
2022/09/02 03:05:28;;;;;;;3.20;2.00;;;;;;;7.71;69.15;100800.30;130558;1267;108797;-78
2022/09/02 03:08:35;;;;;;;3.30;2.20;;;;;;;7.66;69.31;100804.92;130341;1267;107485;-77
2022/09/02 03:11:41;;;;;;;2.60;1.90;;;;;;;7.61;69.47;100807.26;131946;1267;109064;-77
2022/09/02 03:14:46;;;;;;;3.20;2.00;;;;;;;7.57;69.38;100808.69;130450;1268;108697;-75
2022/09/02 03:17:53;;;;;;;4.30;1.90;;;;;;;7.56;69.37;100805.92;130226;1268;108959;-76
2022/09/02 03:20:59;;;;;;;3.20;1.90;;;;;;;7.57;69.04;100802.84;130344;1268;109069;-76
2022/09/02 03:24:06;;;;;;;3.70;2.00;;;;;;;7.58;69.20;100800.05;130434;1266;108785;-76
2022/09/02 03:27:11;;;;;;;4.40;2.30;;;;;;;7.59;69.46;100802.14;130404;1268;108780;-76
2022/09/02 03:30:21;;;;;;;2.90;1.90;;;;;;;7.62;69.22;100801.89;130263;1268;108839;-76
2022/09/02 03:33:26;;;;;;;7.50;3.70;;;;;;;7.61;69.27;100804.61;130314;1268;108669;-76
2022/09/02 03:36:35;;;;;;;17.30;6.50;;;;;;;7.58;69.13;100808.20;130416;1268;108999;-76
2022/09/02 03:39:40;;;;;;;19.90;7.10;;;;;;;7.55;69.06;100807.73;130323;1267;108887;-77
2022/09/02 03:42:46;;;;;;;9.40;3.80;;;;;;;7.50;69.04;100810.10;130324;1268;108695;-76
2022/09/02 03:45:51;;;;;;;4.00;2.40;;;;;;;7.43;69.22;100819.27;130346;1268;108869;-76
2022/09/02 03:48:57;;;;;;;3.80;2.40;;;;;;;7.37;69.25;100824.02;130353;1268;108972;-76
2022/09/02 03:52:03;;;;;;;3.60;2.10;;;;;;;7.32;69.09;100825.26;130378;1267;108776;-77
2022/09/02 03:55:09;;;;;;;5.90;3.20;;;;;;;7.28;68.96;100832.27;130452;1268;108776;-78
2022/09/02 03:58:16;;;;;;;32.60;11.30;;;;;;;7.21;69.23;100835.84;130499;1268;108736;-80
2022/09/02 04:01:24;;;;;;;48.20;18.90;;;;;;;7.19;69.36;100839.05;130479;1266;109063;-80
2022/09/02 04:04:31;;;;;;;37.20;13.40;;;;;;;7.17;69.25;100839.65;130418;1267;108881;-80
2022/09/02 04:07:37;;;;;;;25.80;9.30;;;;;;;7.18;69.35;100848.98;130407;1267;108746;-80
2022/09/02 04:10:43;;;;;;;13.10;5.20;;;;;;;7.19;69.56;100848.39;130371;1267;108877;-80
2022/09/02 04:13:50;;;;;;;7.60;3.30;;;;;;;7.20;69.61;100851.46;130351;1268;108971;-80
2022/09/02 04:16:57;;;;;;;5.70;2.40;;;;;;;7.23;69.45;100859.09;130553;1266;109210;-79
2022/09/02 04:20:03;;;;;;;8.70;3.00;;;;;;;7.29;69.53;100857.88;130520;1267;108603;-80
2022/09/02 04:23:11;;;;;;;8.20;4.00;;;;;;;7.30;69.38;100861.52;130413;1268;108690;-80
2022/09/02 04:26:21;;;;;;;7.30;3.00;;;;;;;7.33;69.68;100860.64;130268;1268;108965;-79
2022/09/02 04:29:30;;;;;;;4.10;2.40;;;;;;;7.43;69.89;100856.29;130771;1266;108823;-81
2022/09/02 04:32:37;;;;;;;3.10;2.30;;;;;;;7.50;69.41;100855.92;130478;1266;108902;-81
2022/09/02 04:35:45;;;;;;;4.10;2.40;;;;;;;7.55;69.79;100855.90;130505;1266;108926;-81
2022/09/02 04:38:53;;;;;;;4.80;2.20;;;;;;;7.64;69.50;100856.23;130418;1268;109077;-80
2022/09/02 04:42:01;;;;;;;3.90;2.00;;;;;;;7.75;69.82;100852.39;130284;1268;108767;-79
2022/09/02 04:45:10;;;;;;;3.70;2.40;;;;;;;7.84;69.82;100852.58;130431;1268;108816;-79
2022/09/02 04:48:17;;;;;;;3.20;1.80;;;;;;;7.94;69.99;100851.07;130464;1268;109369;-80
2022/09/02 04:51:33;;;;;;;2.50;1.80;;;;;;;8.09;69.97;100847.28;130688;1268;108772;-81
2022/09/02 04:54:39;;;;;;;2.50;1.60;;;;;;;8.23;70.14;100847.00;130774;1267;109296;-72
2022/09/02 04:57:45;;;;;;;3.80;2.00;;;;;;;8.43;70.09;100852.52;130384;1268;108882;-77
2022/09/02 05:00:52;;;;;;;3.60;2.10;;;;;;;8.62;70.27;100853.85;130377;1268;109419;-76
2022/09/02 05:04:01;;;;;;;2.70;1.80;;;;;;;8.80;70.32;100856.45;130380;1268;108815;-74
2022/09/02 05:07:12;;;;;;;4.50;2.10;;;;;;;8.97;70.36;100854.44;130373;1265;109129;-75
2022/09/02 05:10:21;;;;;;;5.50;2.50;;;;;;;9.18;70.32;100856.29;130397;1266;108992;-75
2022/09/02 05:13:29;;;;;;;2.80;2.10;;;;;;;9.29;70.57;100860.89;130216;1268;108744;-74
2022/09/02 05:16:39;;;;;;;2.90;2.10;;;;;;;9.36;70.55;100865.40;130247;1267;109005;-74
2022/09/02 05:19:47;;;;;;;2.10;1.80;;;;;;;9.45;70.76;100865.92;130238;1268;108702;-71
2022/09/02 05:22:54;;;;;;;3.20;1.90;;;;;;;9.52;70.77;100862.49;130372;1267;108806;-73
2022/09/02 05:26:02;;;;;;;3.90;1.90;;;;;;;9.59;70.80;100860.95;130367;1267;108619;-72
2022/09/02 05:29:10;;;;;;;4.20;1.90;;;;;;;9.65;70.96;100859.05;130270;1268;108801;-73
2022/09/02 05:32:17;;;;;;;2.60;1.80;;;;;;;9.76;71.34;100860.58;130375;1267;108837;-72
2022/09/02 05:35:23;;;;;;;4.50;1.90;;;;;;;9.96;71.56;100859.93;130392;1268;108919;-74
2022/09/02 05:38:31;;;;;;;4.10;2.30;;;;;;;10.15;71.45;100857.55;130159;1268;108704;-74
2022/09/02 05:41:36;;;;;;;4.90;3.00;;;;;;;10.32;71.57;100857.89;130293;1268;108845;-75
2022/09/02 05:44:43;;;;;;;4.80;3.30;;;;;;;10.47;72.10;100856.14;130311;1268;107713;-75
2022/09/02 05:47:49;;;;;;;5.90;3.70;;;;;;;10.58;72.25;100858.34;130256;1268;108864;-73
2022/09/02 05:50:55;;;;;;;6.80;2.80;;;;;;;10.72;72.83;100860.52;130221;1268;108855;-74
2022/09/02 05:54:02;;;;;;;4.60;2.60;;;;;;;10.84;72.50;100864.02;130264;1268;108727;-75
2022/09/02 05:57:10;;;;;;;2.30;1.70;;;;;;;10.95;72.57;100865.70;130256;1267;109178;-73
2022/09/02 06:00:17;;;;;;;2.00;1.50;;;;;;;11.07;72.31;100861.05;130224;1268;107175;-72
2022/09/02 06:03:27;;;;;;;2.90;1.90;;;;;;;11.21;71.81;100865.09;130256;1268;108877;-72
2022/09/02 06:06:34;;;;;;;3.00;1.60;;;;;;;11.36;72.19;100864.91;130073;1268;108974;-72
2022/09/02 06:09:40;;;;;;;5.90;1.90;;;;;;;11.49;71.85;100862.64;130297;1268;108886;-72
2022/09/02 06:12:46;;;;;;;3.00;1.50;;;;;;;11.61;71.66;100862.30;130362;1268;108667;-72
2022/09/02 06:15:52;;;;;;;5.20;1.70;;;;;;;11.71;71.63;100860.40;130246;1267;108923;-71
2022/09/02 06:19:02;;;;;;;2.40;1.70;;;;;;;11.79;71.28;100860.33;130458;1268;108790;-72
2022/09/02 06:22:08;;;;;;;4.80;2.10;;;;;;;11.86;71.25;100854.73;130244;1267;109040;-72
2022/09/02 06:25:15;;;;;;;2.10;1.50;;;;;;;11.90;71.25;100856.11;130159;1267;108666;-72
2022/09/02 06:28:21;;;;;;;2.20;1.50;;;;;;;11.96;71.21;100858.20;130372;1267;108818;-71
2022/09/02 06:31:27;;;;;;;3.00;1.80;;;;;;;12.02;71.37;100857.84;130374;1266;108825;-72
2022/09/02 06:34:34;;;;;;;3.50;1.50;;;;;;;12.09;71.44;100859.70;130364;1268;108825;-72
2022/09/02 06:37:40;;;;;;;3.90;1.50;;;;;;;12.13;71.55;100861.19;130369;1267;108821;-71
2022/09/02 06:40:53;;;;;;;2.30;1.40;;;;;;;12.22;71.22;100860.63;130338;1267;108641;-72
2022/09/02 06:44:07;;;;;;;2.10;1.40;;;;;;;12.32;71.12;100861.89;130318;1266;108839;-71
2022/09/02 06:47:14;;;;;;;3.30;1.40;;;;;;;12.46;71.24;100863.91;130333;1267;107711;-71
2022/09/02 06:50:22;;;;;;;2.30;1.50;;;;;;;12.60;71.03;100866.33;130363;1268;108818;-71
2022/09/02 06:53:28;;;;;;;2.30;1.60;;;;;;;12.72;70.87;100865.17;130400;1267;107646;-72
2022/09/02 06:56:35;;;;;;;3.80;1.40;;;;;;;12.83;71.00;100865.30;130353;1267;108908;-71
2022/09/02 06:59:41;;;;;;;2.70;1.70;;;;;;;12.92;70.82;100863.91;130414;1266;109160;-72
2022/09/02 07:05:08;;;;;;;3.00;1.70;;;;;;;12.99;70.91;100862.47;130269;1268;108730;-72
2022/09/02 07:06:13;;;;;;;3.50;1.50;;;;;;;13.10;70.92;100864.08;130431;1268;108741;-71
2022/09/02 07:09:29;;;;;;;2.80;2.10;;;;;;;13.18;70.89;100862.11;130388;1267;108745;-72
2022/09/02 07:12:36;;;;;;;3.00;1.30;;;;;;;13.28;71.02;100866.14;130380;1267;108838;-72
2022/09/02 07:15:45;;;;;;;3.60;1.50;;;;;;;13.36;70.85;100866.78;130372;1267;108763;-72
2022/09/02 07:18:51;;;;;;;3.40;1.40;;;;;;;13.44;70.78;100866.34;130314;1266;108762;-71
2022/09/02 07:21:57;;;;;;;2.00;1.20;;;;;;;13.52;70.79;100866.19;130364;1267;108998;-72
2022/09/02 07:25:03;;;;;;;1.50;1.10;;;;;;;13.61;70.70;100868.00;130377;1267;108737;-73
2022/09/02 07:28:09;;;;;;;1.40;1.10;;;;;;;13.73;70.67;100872.09;130426;1267;108760;-72
2022/09/02 07:31:17;;;;;;;2.20;1.10;;;;;;;13.90;70.47;100871.45;130463;1268;108772;-72
2022/09/02 07:34:24;;;;;;;3.50;1.90;;;;;;;14.05;70.57;100872.52;130380;1268;109015;-72
2022/09/02 07:37:30;;;;;;;3.20;1.20;;;;;;;14.23;70.16;100874.27;130466;1268;108658;-74
2022/09/02 07:40:36;;;;;;;1.50;0.90;;;;;;;14.35;69.68;100878.96;130429;1268;108649;-73
2022/09/02 07:43:42;;;;;;;2.70;1.20;;;;;;;14.42;69.88;100877.97;130443;1266;108739;-72
2022/09/02 07:46:47;;;;;;;1.80;1.40;;;;;;;14.50;69.52;100875.89;130382;1267;108774;-73
2022/09/02 07:49:54;;;;;;;2.70;1.10;;;;;;;14.62;69.37;100873.63;130383;1266;108777;-73
2022/09/02 07:53:05;;;;;;;2.00;0.80;;;;;;;14.71;68.86;100872.64;130445;1268;109918;-73
2022/09/02 07:56:12;;;;;;;1.70;1.10;;;;;;;14.78;68.89;100872.08;130481;1267;107886;-73
2022/09/02 07:59:20;;;;;;;2.50;1.00;;;;;;;14.85;68.54;100869.51;130380;1268;108817;-73
2022/09/02 08:02:27;;;;;;;2.30;1.00;;;;;;;14.92;68.24;100871.47;130315;1268;108689;-73
2022/09/02 08:05:34;;;;;;;1.40;0.70;;;;;;;14.98;67.93;100872.23;130428;1268;108999;-73
2022/09/02 08:08:40;;;;;;;2.20;0.60;;;;;;;15.04;67.91;100872.48;130421;1268;108927;-74
2022/09/02 08:11:48;;;;;;;1.40;0.80;;;;;;;15.11;67.87;100867.40;130403;1266;108790;-72
2022/09/02 08:14:56;;;;;;;1.00;0.60;;;;;;;15.17;67.73;100866.70;130469;1268;108678;-72
2022/09/02 08:18:02;;;;;;;1.30;0.40;;;;;;;15.24;67.25;100865.98;130444;1268;108628;-72
2022/09/02 08:21:08;;;;;;;1.20;0.70;;;;;;;15.30;66.93;100867.03;130473;1266;109115;-73
2022/09/02 08:24:14;;;;;;;1.20;0.80;;;;;;;15.38;67.02;100866.05;130440;1268;108471;-72
2022/09/02 08:27:19;;;;;;;1.20;0.70;;;;;;;15.47;67.16;100863.39;130473;1267;108646;-73
2022/09/02 08:30:25;;;;;;;0.90;0.70;;;;;;;15.56;66.77;100862.14;130366;1268;108807;-72
2022/09/02 08:33:30;;;;;;;1.10;0.60;;;;;;;15.63;66.67;100861.24;130428;1268;108907;-73
2022/09/02 08:36:36;;;;;;;0.80;0.60;;;;;;;15.71;66.32;100860.63;130376;1267;108908;-72
2022/09/02 08:39:41;;;;;;;1.10;0.80;;;;;;;15.76;65.90;100859.77;130415;1267;110007;-75
2022/09/02 08:42:49;;;;;;;1.40;0.60;;;;;;;15.82;65.84;100861.00;130417;1267;108895;-73
2022/09/02 08:45:58;;;;;;;2.20;0.80;;;;;;;15.91;65.31;100860.89;130519;1266;108755;-73
2022/09/02 08:49:08;;;;;;;2.90;0.70;;;;;;;15.96;65.19;100856.20;130488;1267;108648;-73
2022/09/02 08:52:20;;;;;;;1.30;0.70;;;;;;;16.00;64.63;100849.84;130467;1267;107563;-74
2022/09/02 08:55:35;;;;;;;2.10;0.60;;;;;;;16.08;64.23;100848.02;130372;1266;108757;-73
2022/09/02 08:58:43;;;;;;;1.40;0.40;;;;;;;16.10;63.50;100845.79;130433;1267;108668;-73
2022/09/02 09:01:56;;;;;;;1.50;0.40;;;;;;;16.14;62.82;100849.73;130518;1267;108731;-73
2022/09/02 09:05:22;;;;;;;0.80;0.50;;;;;;;16.17;63.04;100844.44;130525;1268;108920;-74
2022/09/02 09:08:36;;;;;;;0.60;0.50;;;;;;;16.23;63.47;100844.48;130459;1268;108848;-72
2022/09/02 09:11:47;;;;;;;0.80;0.60;;;;;;;16.28;63.09;100845.58;130348;1267;108801;-72
2022/09/02 09:14:58;;;;;;;0.80;0.60;;;;;;;16.33;63.02;100843.02;130348;1267;108798;-73
2022/09/02 09:18:07;;;;;;;1.00;0.50;;;;;;;16.42;63.33;100837.27;130353;1267;108672;-73
2022/09/02 09:21:13;;;;;;;1.40;0.40;;;;;;;16.50;62.09;100841.08;130322;1267;108151;-74
2022/09/02 09:24:30;;;;;;;0.80;0.50;;;;;;;16.54;61.96;100837.02;130167;1268;107486;-73
2022/09/02 09:27:35;;;;;;;0.90;0.50;;;;;;;16.54;60.99;100835.43;130328;1267;108569;-72
2022/09/02 09:30:40;;;;;;;0.70;0.50;;;;;;;16.46;61.99;100841.00;130384;1267;108993;-72
2022/09/02 09:34:01;;;;;;;1.00;0.70;;;;;;;16.51;61.78;100840.64;130399;1267;108822;-73
2022/09/02 09:37:06;;;;;;;0.80;0.50;;;;;;;16.60;60.78;100837.58;130427;1267;108711;-74
2022/09/02 09:40:31;;;;;;;1.30;0.50;;;;;;;16.60;61.11;100840.85;130402;1267;108854;-74
2022/09/02 09:43:36;;;;;;;2.00;0.50;;;;;;;16.61;61.36;100841.80;130400;1267;109006;-74
2022/09/02 09:46:41;;;;;;;0.80;0.50;;;;;;;16.70;61.30;100833.38;130450;1268;108754;-72
2022/09/02 09:49:49;;;;;;;3.40;0.70;;;;;;;16.90;60.95;100829.25;130339;1267;108704;-72
2022/09/02 09:52:54;;;;;;;0.50;0.40;;;;;;;17.12;59.64;100826.30;130212;1268;108539;-73
2022/09/02 09:56:03;;;;;;;1.80;0.50;;;;;;;17.36;58.47;100822.01;130213;1267;108743;-73
2022/09/02 09:59:30;;;;;;;1.40;0.70;;;;;;;17.60;59.50;100819.66;130208;1268;107024;-72
2022/09/02 10:02:46;;;;;;;0.50;0.50;;;;;;;17.87;59.28;100813.33;130217;1268;108803;-75
2022/09/02 10:05:55;;;;;;;1.00;0.50;;;;;;;18.10;59.30;100811.44;130228;1268;108487;-73
2022/09/02 10:09:03;;;;;;;1.80;0.50;;;;;;;18.29;59.39;100811.54;130200;1268;108756;-75
2022/09/02 10:12:11;;;;;;;0.70;0.40;;;;;;;18.46;59.24;100811.84;130332;1268;108714;-74
2022/09/02 10:15:22;;;;;;;0.60;0.40;;;;;;;18.68;58.45;100810.77;130319;1267;108870;-74
2022/09/02 10:18:35;;;;;;;0.90;0.40;;;;;;;18.88;58.29;100808.50;130460;1268;108870;-75
2022/09/02 10:21:58;;;;;;;0.70;0.50;;;;;;;19.16;58.37;100805.86;130359;1267;108776;-74
2022/09/02 10:25:19;;;;;;;1.50;0.40;;;;;;;19.35;57.17;100808.56;130293;1268;108960;-74
2022/09/02 10:28:41;;;;;;;1.20;0.60;;;;;;;19.38;57.63;100809.91;130423;1267;108772;-74
2022/09/02 10:31:58;;;;;;;0.50;0.40;;;;;;;19.43;57.70;100809.61;130448;1268;108878;-74
2022/09/02 10:35:13;;;;;;;1.70;0.60;;;;;;;19.60;56.87;100802.55;130451;1267;108902;-74
2022/09/02 10:38:33;;;;;;;1.80;0.50;;;;;;;19.65;56.19;100797.20;130373;1268;107355;-74
2022/09/02 10:41:44;;;;;;;0.70;0.40;;;;;;;19.68;56.60;100801.15;130336;1268;108853;-75
2022/09/02 10:44:59;;;;;;;2.30;0.60;;;;;;;19.74;56.51;100801.96;130309;1268;108741;-74
2022/09/02 10:48:20;;;;;;;0.70;0.50;;;;;;;19.79;56.43;100797.77;130388;1268;108777;-73
2022/09/02 10:51:36;;;;;;;1.90;0.60;;;;;;;19.62;55.63;100805.98;130499;1268;108641;-74
2022/09/02 10:54:52;;;;;;;1.70;0.80;;;;;;;19.34;53.74;100802.84;130322;1268;108620;-73
2022/09/02 10:58:03;;;;;;;1.50;0.50;;;;;;;19.06;55.42;100806.24;130430;1268;109722;-72
2022/09/02 11:01:16;;;;;;;0.80;0.40;;;;;;;18.92;54.90;100810.88;130394;1267;109198;-72
2022/09/02 11:04:31;;;;;;;1.30;0.60;;;;;;;18.68;53.80;100808.04;130380;1267;108641;-72
2022/09/02 11:07:42;;;;;;;1.90;0.60;;;;;;;18.42;53.35;100806.97;130344;1268;109782;-72
2022/09/02 11:10:59;;;;;;;1.10;0.50;;;;;;;18.28;53.42;100805.27;130401;1267;108695;-72
2022/09/02 11:14:15;;;;;;;1.60;0.50;;;;;;;18.16;53.97;100801.58;130486;1268;106989;-72
2022/09/02 11:17:25;;;;;;;1.20;0.50;;;;;;;18.05;53.79;100800.44;130389;1267;109091;-73
2022/09/02 11:20:38;;;;;;;1.30;0.60;;;;;;;17.93;53.82;100796.96;130376;1268;108807;-72
2022/09/02 11:23:50;;;;;;;1.20;0.40;;;;;;;17.95;54.39;100794.62;130378;1268;107845;-72
2022/09/02 11:27:04;;;;;;;0.60;0.50;;;;;;;18.14;54.64;100797.31;130473;1268;108664;-72
2022/09/02 11:30:14;;;;;;;1.00;0.50;;;;;;;18.31;54.58;100796.80;130517;1268;108746;-72
2022/09/02 11:33:25;;;;;;;1.50;0.50;;;;;;;18.39;54.44;100794.77;130440;1267;108761;-72
2022/09/02 11:36:31;;;;;;;1.00;0.50;;;;;;;18.42;54.08;100793.46;130532;1267;108758;-72
2022/09/02 11:39:41;;;;;;;1.70;0.50;;;;;;;18.42;54.27;100787.94;130499;1268;108862;-72
2022/09/02 11:43:01;;;;;;;0.40;0.40;;;;;;;18.42;53.88;100785.57;130519;1268;107435;-72
2022/09/02 11:46:40;;;;;;;1.20;0.50;;;;;;;18.42;54.02;100780.00;130475;1267;108592;-72
2022/09/02 11:50:09;;;;;;;1.40;0.50;;;;;;;18.54;53.95;100780.61;130392;1268;109701;-72
2022/09/02 11:53:23;;;;;;;1.70;0.60;;;;;;;18.66;53.56;100779.62;130333;1268;108840;-72
2022/09/02 11:56:38;;;;;;;2.60;0.70;;;;;;;18.67;53.30;100781.23;130331;1268;108550;-71
2022/09/02 12:00:07;;;;;;;1.80;0.50;;;;;;;18.49;50.25;100774.79;130377;1268;108777;-72
2022/09/02 12:03:24;;;;;;;0.90;0.50;;;;;;;18.45;53.07;100772.25;130446;1265;108827;-70
2022/09/02 12:06:30;;;;;;;3.40;1.00;;;;;;;18.53;51.86;100769.09;130455;1265;108508;-71
2022/09/02 12:09:53;;;;;;;1.60;0.60;;;;;;;18.56;51.98;100768.11;130335;1268;108834;-71
2022/09/02 12:13:07;;;;;;;1.00;0.40;;;;;;;18.65;52.27;100766.22;130621;1265;108797;-71
2022/09/02 12:16:37;;;;;;;0.90;0.50;;;;;;;18.74;51.02;100764.17;131274;1265;108995;-71
2022/09/02 12:19:47;;;;;;;1.00;0.60;;;;;;;18.82;52.00;100761.24;129155;1265;1694071;-71
2022/09/02 12:22:53;;;;;;;1.00;0.60;;;;;;;18.85;51.25;100750.87;130448;1265;108837;-71
2022/09/02 12:26:06;;;;;;;1.20;0.60;;;;;;;18.82;51.54;100754.08;130326;1268;108732;-70
2022/09/02 12:29:32;;;;;;;2.00;0.70;;;;;;;18.87;51.42;100749.35;130411;1265;108792;-71
2022/09/02 12:33:08;;;;;;;1.90;0.50;;;;;;;18.92;51.18;100749.21;130481;1265;108742;-71
2022/09/02 12:36:50;;;;;;;1.90;0.50;;;;;;;18.95;51.24;100757.23;130493;1265;108790;-71
2022/09/02 12:40:02;;;;;;;1.00;0.50;;;;;;;19.02;51.35;100757.36;130269;1265;109016;-79
2022/09/02 12:43:24;;;;;;;0.70;0.50;;;;;;;19.05;51.12;100752.06;130255;1265;108815;-72
2022/09/02 12:46:48;;;;;;;0.80;0.50;;;;;;;19.07;51.18;100751.42;130433;1265;108655;-72
2022/09/02 12:50:02;;;;;;;0.90;0.50;;;;;;;19.12;50.89;100751.65;130383;1268;108723;-72
2022/09/02 12:53:24;;;;;;;2.00;0.50;;;;;;;19.15;50.69;100743.05;130395;1265;108597;-73
2022/09/02 12:56:30;;;;;;;1.20;0.60;;;;;;;19.19;50.67;100741.55;130404;1268;109035;-71
2022/09/02 12:59:38;;;;;;;0.80;0.40;;;;;;;19.17;50.02;100741.32;130388;1268;108070;-71
2022/09/02 13:02:56;;;;;;;1.80;0.70;;;;;;;19.13;50.39;100737.17;130441;1265;109474;-71
2022/09/02 13:06:10;;;;;;;3.20;0.70;;;;;;;19.11;50.45;100736.09;130570;1265;108694;-73
2022/09/02 13:09:35;;;;;;;0.80;0.60;;;;;;;19.11;49.97;100732.52;130415;1268;108695;-73
2022/09/02 13:13:12;;;;;;;0.80;0.40;;;;;;;19.07;49.07;100730.85;130463;1268;108641;-76
2022/09/02 13:16:33;;;;;;;0.90;0.60;;;;;;;19.02;47.61;100731.53;130298;1267;108679;-74
2022/09/02 13:20:00;;;;;;;1.10;0.70;;;;;;;18.96;49.05;100726.91;130394;1267;108635;-72
2022/09/02 13:23:38;;;;;;;1.10;0.50;;;;;;;18.98;49.30;100726.10;130388;1268;107687;-73
2022/09/02 13:27:38;;;;;;;1.50;0.60;;;;;;;18.86;49.01;100722.71;130446;1268;108805;-71
2022/09/02 13:31:03;;;;;;;1.50;0.50;;;;;;;18.63;49.26;100725.31;129816;1273;107397;-72
2022/09/02 13:34:13;;;;;;;0.70;0.50;;;;;;;18.43;49.42;100723.48;130413;1268;108426;-72
2022/09/02 13:37:34;;;;;;;1.40;0.80;;;;;;;18.30;49.54;100720.60;130564;1268;108559;-72
2022/09/02 13:40:41;;;;;;;0.90;0.40;;;;;;;18.30;49.40;100716.48;130511;1268;108478;-71
2022/09/02 13:43:46;;;;;;;1.80;0.60;;;;;;;18.32;49.55;100712.73;130437;1267;108849;-71
2022/09/02 13:46:56;;;;;;;1.30;0.50;;;;;;;18.36;48.93;100706.65;130513;1268;108742;-72
2022/09/02 13:50:02;;;;;;;11.10;6.50;;;;;;;18.37;48.83;100703.50;130533;1268;108128;-71
2022/09/02 13:53:10;;;;;;;5.00;2.60;;;;;;;18.38;48.80;100700.66;130324;1268;108975;-71
2022/09/02 13:56:17;;;;;;;1.80;1.00;;;;;;;18.40;48.48;100696.40;130358;1268;107183;-73
2022/09/02 13:59:35;;;;;;;1.30;0.70;;;;;;;18.41;48.23;100688.54;130424;1268;108377;-71
2022/09/02 14:02:40;;;;;;;2.00;0.50;;;;;;;18.43;48.03;100686.15;130444;1268;108907;-72
2022/09/02 14:05:47;;;;;;;1.20;0.50;;;;;;;18.45;48.00;100688.08;130484;1268;108864;-74
2022/09/02 14:08:57;;;;;;;1.50;0.60;;;;;;;18.41;47.55;100684.42;130380;1268;109816;-72
2022/09/02 14:12:04;;;;;;;3.00;0.60;;;;;;;18.39;47.68;100685.90;130428;1267;108730;-71
2022/09/02 14:15:14;;;;;;;1.30;0.60;;;;;;;18.41;48.10;100678.35;130369;1268;108841;-71
2022/09/02 14:18:21;;;;;;;2.80;0.50;;;;;;;18.42;47.40;100681.95;130404;1268;108972;-72
2022/09/02 14:21:26;;;;;;;2.00;0.60;;;;;;;18.41;47.34;100677.60;130422;1268;107428;-71
2022/09/02 14:24:40;;;;;;;0.90;0.60;;;;;;;18.40;47.30;100680.75;130370;1268;107721;-71
2022/09/02 14:27:52;;;;;;;1.10;0.70;;;;;;;18.39;47.23;100680.53;130393;1268;109026;-70